Time;durP1;ratioP1;P1;durP2;ratioP2;P2;SDS_P1;SDS_P2;PMS_P1;PMS_P2;Temp;Humidity;BMP_temperature;BMP_pressure;BME280_temperature;BME280_humidity;BME280_pressure;Samples;Min_cycle;Max_cycle;Signal;HPM_P1;HPM_P2
2022/08/24 00:01:12;;;;;;;42.60;34.72;;;19.90;99.90;;;;;;4974231;28;20097;-59
2022/08/24 00:03:39;;;;;;;42.42;35.38;;;19.80;99.90;;;;;;4974429;28;20039;-59
2022/08/24 00:06:09;;;;;;;43.80;35.63;;;19.70;99.90;;;;;;4974358;28;20039;-59
2022/08/24 00:08:40;;;;;;;45.20;34.85;;;19.80;99.90;;;;;;4974185;28;20039;-59
2022/08/24 00:11:06;;;;;;;42.92;35.10;;;19.80;99.90;;;;;;4974211;28;20097;-58
2022/08/24 00:13:33;;;;;;;49.88;36.15;;;19.80;99.90;;;;;;4956706;28;20484;-58
2022/08/24 00:15:59;;;;;;;43.13;35.40;;;19.80;99.90;;;;;;4974289;28;20055;-59
2022/08/24 00:18:26;;;;;;;39.38;33.83;;;19.80;99.90;;;;;;4974335;28;20147;-59
2022/08/24 00:20:55;;;;;;;43.17;36.95;;;19.80;99.90;;;;;;4974163;28;20038;-59
2022/08/24 00:23:21;;;;;;;41.50;32.05;;;19.70;99.90;;;;;;4973617;28;20514;-58
2022/08/24 00:25:48;;;;;;;38.05;31.05;;;19.70;99.90;;;;;;4973947;28;20046;-59
2022/08/24 00:28:14;;;;;;;39.25;32.03;;;19.70;99.90;;;;;;4974203;28;20110;-59
2022/08/24 00:30:42;;;;;;;33.97;30.25;;;19.60;99.90;;;;;;4957487;28;20045;-58
2022/08/24 00:33:08;;;;;;;34.53;29.63;;;19.70;99.90;;;;;;4977734;28;20042;-57
2022/08/24 00:35:33;;;;;;;38.80;33.70;;;19.50;99.90;;;;;;4960530;28;20118;-58
2022/08/24 00:38:01;;;;;;;42.10;35.90;;;19.60;99.90;;;;;;4977863;28;20471;-58
2022/08/24 00:40:32;;;;;;;43.42;35.00;;;19.60;99.90;;;;;;4977537;28;20042;-58
2022/08/24 00:43:02;;;;;;;44.58;35.65;;;19.60;99.90;;;;;;4960570;28;20458;-58
2022/08/24 00:45:30;;;;;;;39.42;34.58;;;19.50;99.90;;;;;;4977589;28;20085;-58
2022/08/24 00:48:02;;;;;;;41.80;34.15;;;19.10;99.90;;;;;;4977698;28;20410;-59
2022/08/24 00:50:47;;;;;;;38.88;32.75;;;19.50;99.90;;;;;;4977440;28;20126;-59
2022/08/24 00:53:23;;;;;;;43.80;34.13;;;19.60;99.90;;;;;;4960408;28;20471;-58
2022/08/24 00:55:54;;;;;;;37.17;31.80;;;19.50;99.90;;;;;;4977696;28;20399;-59
2022/08/24 00:58:35;;;;;;;39.88;32.78;;;19.50;99.90;;;;;;4960126;28;20554;-58
2022/08/24 01:01:07;;;;;;;38.20;33.42;;;19.40;99.90;;;;;;4977367;28;20046;-58
2022/08/24 01:03:36;;;;;;;38.88;34.33;;;19.40;99.90;;;;;;4977240;28;20043;-58
2022/08/24 01:06:02;;;;;;;36.17;31.10;;;19.40;99.90;;;;;;4977147;28;20038;-58
2022/08/24 01:08:28;;;;;;;33.55;29.92;;;19.20;99.90;;;;;;4977241;28;20046;-58
2022/08/24 01:10:59;;;;;;;32.50;28.45;;;19.30;99.90;;;;;;4960131;28;20380;-59
2022/08/24 01:13:26;;;;;;;37.45;31.45;;;19.30;99.90;;;;;;4977123;28;20049;-58
2022/08/24 01:15:56;;;;;;;39.03;34.72;;;19.30;99.90;;;;;;4976938;28;20053;-59
2022/08/24 01:21:36;;;;;;;41.92;36.28;;;19.20;99.90;;;;;;4976990;28;20049;-58
2022/08/24 01:24:10;;;;;;;37.85;32.33;;;19.10;99.90;;;;;;4959341;28;20062;-58
2022/08/24 01:26:45;;;;;;;41.72;35.38;;;19.20;99.90;;;;;;4977103;28;20039;-59
2022/08/24 01:29:18;;;;;;;40.22;34.22;;;19.10;99.90;;;;;;4976753;28;20494;-59
2022/08/24 01:31:44;;;;;;;45.10;37.33;;;19.10;99.90;;;;;;4976906;28;20041;-58
2022/08/24 01:34:11;;;;;;;45.92;37.38;;;19.10;99.90;;;;;;4976461;28;20364;-59
2022/08/24 01:36:54;;;;;;;42.33;37.72;;;19.10;99.90;;;;;;4976575;28;20039;-59
2022/08/24 01:39:29;;;;;;;43.65;35.60;;;19.10;99.90;;;;;;4976369;28;20047;-59
2022/08/24 01:41:56;;;;;;;39.30;34.47;;;19.00;99.90;;;;;;4976368;28;20050;-58
2022/08/24 01:44:23;;;;;;;38.55;34.33;;;18.90;99.90;;;;;;4976213;28;20050;-59
2022/08/24 01:46:53;;;;;;;37.75;33.35;;;18.80;99.90;;;;;;4976528;28;20061;-58
2022/08/24 01:49:21;;;;;;;39.40;34.60;;;18.90;99.90;;;;;;4976191;28;20042;-59
2022/08/24 01:51:46;;;;;;;39.83;35.40;;;18.80;99.90;;;;;;4976574;28;20117;-58
2022/08/24 01:54:13;;;;;;;38.78;34.53;;;18.50;99.90;;;;;;4976293;28;20078;-59
2022/08/24 01:56:39;;;;;;;41.47;34.33;;;18.50;99.90;;;;;;4976519;28;20360;-58
2022/08/24 01:59:06;;;;;;;41.33;35.38;;;18.80;99.90;;;;;;4976164;28;20118;-58
2022/08/24 02:01:39;;;;;;;38.33;31.85;;;18.90;99.90;;;;;;4975167;28;20055;-58
2022/08/24 02:04:06;;;;;;;37.97;32.58;;;18.60;99.90;;;;;;4976444;28;20470;-59
2022/08/24 02:06:34;;;;;;;39.65;32.50;;;18.60;99.90;;;;;;4976091;28;20109;-58
2022/08/24 02:09:01;;;;;;;37.70;31.77;;;18.50;99.90;;;;;;4975969;28;20391;-59
2022/08/24 02:11:27;;;;;;;36.35;32.38;;;18.40;99.90;;;;;;4976043;28;20045;-58
2022/08/24 02:13:53;;;;;;;36.85;32.40;;;18.50;99.90;;;;;;4976046;28;20045;-58
2022/08/24 02:16:19;;;;;;;38.72;32.20;;;18.50;99.90;;;;;;4975598;28;20062;-59
2022/08/24 02:18:45;;;;;;;41.97;34.05;;;18.50;99.90;;;;;;4976067;28;20435;-58
2022/08/24 02:21:13;;;;;;;38.13;32.92;;;18.20;99.90;;;;;;4976121;28;20402;-58
2022/08/24 02:23:40;;;;;;;41.38;32.92;;;18.40;99.90;;;;;;4958337;28;20388;-58
2022/08/24 02:26:08;;;;;;;40.60;34.42;;;18.30;99.90;;;;;;4975787;28;20510;-58
2022/08/24 02:28:35;;;;;;;42.90;36.25;;;18.50;99.90;;;;;;4975652;28;20034;-58
2022/08/24 02:31:04;;;;;;;40.65;34.85;;;18.30;99.90;;;;;;4975544;28;20058;-58
2022/08/24 02:33:31;;;;;;;39.67;34.60;;;18.30;99.90;;;;;;4975856;28;20038;-58
2022/08/24 02:35:57;;;;;;;42.35;36.13;;;18.20;99.90;;;;;;4975691;28;20043;-57
2022/08/24 02:38:25;;;;;;;41.75;36.50;;;18.00;99.90;;;;;;4975922;28;20050;-57
2022/08/24 02:40:50;;;;;;;43.30;36.65;;;18.20;99.90;;;;;;4975523;28;20042;-57
2022/08/24 02:43:16;;;;;;;37.92;33.78;;;18.30;99.90;;;;;;4975413;28;20054;-57
2022/08/24 02:45:45;;;;;;;39.20;34.60;;;18.10;99.90;;;;;;4975681;28;20039;-58
2022/08/24 02:48:12;;;;;;;44.53;35.30;;;18.10;99.90;;;;;;4975418;28;20043;-57
2022/08/24 02:50:45;;;;;;;39.90;35.22;;;18.10;99.90;;;;;;4975363;28;20042;-58
2022/08/24 02:53:12;;;;;;;41.00;34.17;;;18.10;99.90;;;;;;4975196;28;20471;-58
2022/08/24 02:55:40;;;;;;;35.80;31.90;;;18.00;99.90;;;;;;4974558;28;20039;-58
2022/08/24 02:58:07;;;;;;;36.65;32.75;;;17.80;99.90;;;;;;4975006;28;20047;-58
2022/08/24 03:00:35;;;;;;;36.58;32.78;;;18.00;99.90;;;;;;4957851;28;20053;-57
2022/08/24 03:03:01;;;;;;;33.58;29.98;;;18.00;99.90;;;;;;4975150;28;20039;-57
2022/08/24 03:05:27;;;;;;;30.77;27.67;;;18.00;99.90;;;;;;4975342;28;20090;-57
2022/08/24 03:07:53;;;;;;;29.17;26.25;;;17.80;99.90;;;;;;4975151;28;20042;-58
2022/08/24 03:10:20;;;;;;;30.85;27.65;;;17.80;99.90;;;;;;4974842;28;20065;-57
2022/08/24 03:12:46;;;;;;;32.67;29.35;;;17.80;99.90;;;;;;4975143;28;20043;-58
2022/08/24 03:15:12;;;;;;;30.63;27.50;;;17.80;99.90;;;;;;4975075;28;20061;-58
2022/08/24 03:17:39;;;;;;;34.15;30.52;;;17.90;99.90;;;;;;4974933;28;20098;-57
2022/08/24 03:20:12;;;;;;;34.30;30.63;;;17.20;99.90;;;;;;4974875;28;20129;-58
2022/08/24 03:22:40;;;;;;;37.33;33.38;;;17.80;99.90;;;;;;4974833;28;20514;-58
2022/08/24 03:25:07;;;;;;;34.08;30.00;;;17.20;99.90;;;;;;4957444;28;20105;-58
2022/08/24 03:27:33;;;;;;;33.05;29.45;;;17.60;99.90;;;;;;4974878;28;20122;-57
2022/08/24 03:30:00;;;;;;;49.92;40.63;;;17.70;99.90;;;;;;4974734;28;20039;-58
2022/08/24 03:32:26;;;;;;;39.67;35.45;;;17.70;99.90;;;;;;4974804;28;20117;-57
2022/08/24 03:34:53;;;;;;;45.22;38.65;;;17.60;99.90;;;;;;4974705;28;20109;-57
2022/08/24 03:37:19;;;;;;;49.92;42.45;;;17.60;99.90;;;;;;4974555;28;20479;-60
2022/08/24 03:39:46;;;;;;;47.67;39.50;;;17.70;99.90;;;;;;4974345;28;20057;-58
2022/08/24 03:42:14;;;;;;;45.58;38.88;;;17.40;99.90;;;;;;4974679;28;20108;-58
2022/08/24 03:44:40;;;;;;;45.85;39.53;;;17.10;99.90;;;;;;4974559;28;20451;-57
2022/08/24 03:47:09;;;;;;;47.53;40.92;;;17.60;99.90;;;;;;4974506;28;20176;-57
2022/08/24 03:49:36;;;;;;;44.47;38.33;;;17.60;99.90;;;;;;4974429;28;20275;-58
2022/08/24 03:52:04;;;;;;;44.83;39.97;;;17.50;99.90;;;;;;4974273;28;20480;-57
2022/08/24 03:54:30;;;;;;;50.88;43.38;;;17.60;99.90;;;;;;4957081;28;20039;-57
2022/08/24 03:56:57;;;;;;;46.75;40.63;;;17.60;99.90;;;;;;4974323;28;20050;-57
2022/08/24 03:59:23;;;;;;;49.30;40.17;;;17.60;99.90;;;;;;4974465;28;20439;-57
2022/08/24 04:01:49;;;;;;;43.03;37.63;;;17.50;99.90;;;;;;4974179;28;20113;-58
2022/08/24 04:04:15;;;;;;;38.50;33.88;;;17.70;99.90;;;;;;4974368;28;20047;-58
2022/08/24 04:06:43;;;;;;;36.55;32.63;;;17.50;99.90;;;;;;4976631;28;20101;-58
2022/08/24 04:09:12;;;;;;;25.42;22.77;;;17.60;99.90;;;;;;4978213;28;20479;-58
2022/08/24 04:11:37;;;;;;;23.27;20.63;;;16.80;99.90;;;;;;4978195;28;20042;-57
2022/08/24 04:14:03;;;;;;;24.08;20.67;;;17.60;99.90;;;;;;4978271;28;20045;-58
2022/08/24 04:16:29;;;;;;;25.13;22.40;;;17.40;99.90;;;;;;4960787;28;20483;-58
2022/08/24 04:18:58;;;;;;;25.70;23.13;;;17.40;99.90;;;;;;4978549;28;20046;-57
2022/08/24 04:21:29;;;;;;;31.25;27.67;;;17.40;99.90;;;;;;4977903;28;20054;-58
2022/08/24 04:23:56;;;;;;;33.35;29.85;;;17.40;99.90;;;;;;4960478;28;20519;-57
2022/08/24 04:26:24;;;;;;;36.95;32.92;;;17.30;99.90;;;;;;4977834;28;20051;-58
2022/08/24 04:28:51;;;;;;;44.75;38.97;;;;;;;;;;4960523;28;20046;-58
2022/08/24 04:31:17;;;;;;;45.15;38.33;;;17.80;99.90;;;;;;4977876;28;20558;-58
2022/08/24 04:33:46;;;;;;;40.72;35.20;;;17.30;99.90;;;;;;4977736;28;20046;-58
2022/08/24 04:36:11;;;;;;;41.95;35.40;;;17.30;99.90;;;;;;4977933;28;20050;-58
2022/08/24 04:38:37;;;;;;;45.25;36.83;;;17.40;99.90;;;;;;4977624;28;20054;-57
2022/08/24 04:41:08;;;;;;;44.88;38.03;;;17.20;99.90;;;;;;4977742;28;20079;-57
2022/08/24 04:43:34;;;;;;;47.25;39.28;;;17.20;99.90;;;;;;4960222;28;20046;-58
2022/08/24 04:46:07;;;;;;;47.53;40.00;;;17.30;99.90;;;;;;4977594;28;20043;-57
2022/08/24 04:48:33;;;;;;;48.50;40.20;;;17.00;99.90;;;;;;4960271;28;20050;-57
2022/08/24 04:51:04;;;;;;;47.83;38.95;;;17.50;99.90;;;;;;4977587;28;20046;-58
2022/08/24 04:53:30;;;;;;;42.63;37.40;;;17.50;99.90;;;;;;4977581;28;20042;-58
2022/08/24 04:55:57;;;;;;;45.95;38.30;;;17.40;99.90;;;;;;4976801;28;20054;-57
2022/08/24 04:58:24;;;;;;;42.92;36.90;;;17.40;99.90;;;;;;4977074;28;20090;-57
2022/08/24 05:00:50;;;;;;;40.90;36.45;;;17.50;99.90;;;;;;4971636;28;20031;-57
2022/08/24 05:03:16;;;;;;;45.75;38.63;;;17.20;99.90;;;;;;4941311;28;20045;-57
2022/08/24 05:05:45;;;;;;;44.88;38.15;;;17.40;99.90;;;;;;4975991;28;20066;-57
2022/08/24 05:08:12;;;;;;;45.63;39.65;;;17.70;99.90;;;;;;4976309;28;20133;-57
2022/08/24 05:10:41;;;;;;;43.70;38.20;;;17.40;99.90;;;;;;4975480;28;20150;-57
2022/08/24 05:13:07;;;;;;;44.42;37.45;;;17.40;99.90;;;;;;4974969;28;20482;-57
2022/08/24 05:15:34;;;;;;;42.15;36.45;;;17.50;99.90;;;;;;4975557;28;20380;-57
2022/08/24 05:18:00;;;;;;;43.42;38.03;;;17.90;99.90;;;;;;4974902;28;20034;-58
2022/08/24 05:20:27;;;;;;;41.75;36.28;;;17.60;99.90;;;;;;4958309;28;20053;-58
2022/08/24 05:22:53;;;;;;;36.42;32.20;;;18.00;99.90;;;;;;4975976;28;20042;-58
2022/08/24 05:25:19;;;;;;;32.58;29.25;;;18.60;99.90;;;;;;4976486;28;20089;-58
2022/08/24 05:27:45;;;;;;;34.85;30.58;;;19.80;99.90;;;;;;4976473;28;20130;-58
2022/08/24 05:30:11;;;;;;;31.02;27.40;;;20.20;99.90;;;;;;4959350;28;20121;-58
2022/08/24 05:32:37;;;;;;;32.72;28.98;;;21.10;99.90;;;;;;4976914;28;20042;-58
2022/08/24 05:35:05;;;;;;;35.25;26.67;;;21.90;99.90;;;;;;4976817;28;20483;-58
2022/08/24 05:37:33;;;;;;;37.28;27.38;;;22.60;99.90;;;;;;4976661;28;20503;-58
2022/08/24 05:40:04;;;;;;;32.70;26.42;;;23.70;99.90;;;;;;4976596;28;20047;-58
2022/08/24 05:42:30;;;;;;;29.83;24.88;;;24.00;99.90;;;;;;4975277;28;20043;-58
2022/08/24 05:44:58;;;;;;;30.00;24.70;;;24.30;99.90;;;;;;4959660;28;20129;-58
2022/08/24 05:47:24;;;;;;;28.08;23.10;;;24.90;99.90;;;;;;4976657;28;20042;-58
2022/08/24 05:49:51;;;;;;;31.73;23.30;;;25.40;99.90;;;;;;4976412;28;20046;-58
2022/08/24 05:52:18;;;;;;;26.52;22.67;;;26.00;99.90;;;;;;4976401;28;20129;-58
2022/08/24 05:54:50;;;;;;;25.80;20.92;;;26.50;99.90;;;;;;4976386;28;20049;-58
2022/08/24 05:57:16;;;;;;;24.90;20.00;;;27.40;99.90;;;;;;4975137;28;20209;-57
2022/08/24 05:59:41;;;;;;;22.23;19.85;;;27.50;99.90;;;;;;4975029;28;20085;-57
2022/08/24 06:02:10;;;;;;;23.92;20.77;;;27.80;99.90;;;;;;4976354;28;20399;-56
2022/08/24 06:04:37;;;;;;;26.88;23.00;;;28.30;99.90;;;;;;4976163;28;20049;-57
2022/08/24 06:07:04;;;;;;;27.67;24.98;;;28.40;99.90;;;;;;4976138;28;20053;-59
2022/08/24 06:09:32;;;;;;;31.85;28.42;;;28.70;99.20;;;;;;4975922;28;20046;-59
2022/08/24 06:11:59;;;;;;;33.20;26.20;;;29.10;97.90;;;;;;4942685;28;20081;-59
2022/08/24 06:14:28;;;;;;;31.48;27.98;;;29.70;96.50;;;;;;4976172;28;20042;-59
2022/08/24 06:16:54;;;;;;;35.72;27.33;;;30.00;95.00;;;;;;4975996;28;20101;-56
2022/08/24 06:19:20;;;;;;;40.40;26.45;;;30.50;93.50;;;;;;4958466;28;20399;-56
2022/08/24 06:21:49;;;;;;;36.10;27.00;;;31.00;91.90;;;;;;4975807;28;20053;-57
2022/08/24 06:24:15;;;;;;;29.75;26.08;;;32.20;91.90;;;;;;4975400;28;20062;-56
2022/08/24 06:29:28;;;;;;;25.55;22.95;;;32.10;83.70;;;;;;4975558;28;20106;-57
2022/08/24 06:31:54;;;;;;;23.67;21.15;;;32.40;81.30;;;;;;4975636;28;20035;-57
2022/08/24 06:34:21;;;;;;;28.55;21.85;;;32.50;79.20;;;;;;4975907;28;20114;-59
2022/08/24 06:36:47;;;;;;;25.10;20.17;;;32.90;77.20;;;;;;4975369;28;20049;-57
2022/08/24 06:39:13;;;;;;;27.27;20.77;;;33.30;75.00;;;;;;4975633;28;20043;-57
2022/08/24 06:41:41;;;;;;;23.50;20.08;;;33.70;72.70;;;;;;4975455;28;20388;-59
2022/08/24 06:44:07;;;;;;;24.88;21.00;;;34.20;70.90;;;;;;4974938;28;20062;-57
2022/08/24 06:46:35;;;;;;;23.50;20.52;;;34.60;68.90;;;;;;4974517;28;20466;-57
2022/08/24 06:49:02;;;;;;;22.48;20.00;;;34.90;67.20;;;;;;4975183;28;20400;-57
2022/08/24 06:51:28;;;;;;;27.85;21.70;;;35.30;65.90;;;;;;4975350;28;20035;-56
2022/08/24 06:53:57;;;;;;;28.02;22.50;;;35.70;64.40;;;;;;4975147;28;20388;-59
2022/08/24 06:56:23;;;;;;;31.33;22.38;;;35.80;63.30;;;;;;4975076;28;20058;-59
2022/08/24 06:58:49;;;;;;;33.63;22.42;;;36.00;62.50;;;;;;4975184;28;20043;-57
2022/08/24 07:01:21;;;;;;;33.05;24.45;;;36.20;61.40;;;;;;4975427;28;20046;-57
2022/08/24 07:03:46;;;;;;;30.35;24.85;;;36.40;59.90;;;;;;4974414;28;20391;-58
2022/08/24 07:06:13;;;;;;;28.88;23.70;;;36.50;59.30;;;;;;4974208;28;20043;-59
2022/08/24 07:08:41;;;;;;;31.02;25.50;;;36.80;58.40;;;;;;4974394;28;20042;-60
2022/08/24 07:11:08;;;;;;;31.15;25.88;;;36.90;57.70;;;;;;4973188;28;20047;-60
2022/08/24 07:13:34;;;;;;;34.33;25.00;;;37.00;56.80;;;;;;4973792;28;20034;-61
2022/08/24 07:15:59;;;;;;;52.50;26.63;;;36.70;60.00;;;;;;4974110;28;20039;-61
2022/08/24 07:18:25;;;;;;;30.83;24.67;;;36.80;56.10;;;;;;4973939;28;20046;-60
2022/08/24 07:20:55;;;;;;;31.15;24.88;;;36.90;55.90;;;;;;4974315;28;20047;-60
2022/08/24 07:23:21;;;;;;;37.50;23.92;;;37.30;55.40;;;;;;4973648;28;20077;-61
2022/08/24 07:25:47;;;;;;;30.42;23.60;;;37.60;54.60;;;;;;4974612;28;20455;-60
2022/08/24 07:28:13;;;;;;;26.80;21.48;;;38.00;53.90;;;;;;4973147;28;20046;-59
2022/08/24 07:30:41;;;;;;;26.00;21.90;;;38.30;52.80;;;;;;4973882;28;20100;-59
2022/08/24 07:33:08;;;;;;;30.20;23.35;;;38.60;51.90;;;;;;4974736;28;20049;-59
2022/08/24 07:35:36;;;;;;;28.70;21.70;;;38.60;51.80;;;;;;4973322;28;20043;-60
2022/08/24 07:38:04;;;;;;;27.40;22.38;;;38.20;55.60;;;;;;4974613;28;20038;-60
2022/08/24 07:40:32;;;;;;;31.70;22.30;;;38.90;55.90;;;;;;4973811;28;20054;-60
2022/08/24 07:42:59;;;;;;;26.17;22.23;;;38.50;51.00;;;;;;4974308;28;20042;-60
2022/08/24 07:45:27;;;;;;;32.47;22.33;;;38.60;51.00;;;;;;4974191;28;20048;-60
2022/08/24 07:47:53;;;;;;;23.85;19.90;;;38.60;50.60;;;;;;4974439;28;20039;-60
2022/08/24 07:50:26;;;;;;;28.42;19.58;;;38.60;51.00;;;;;;4974148;28;20495;-60
2022/08/24 07:52:51;;;;;;;30.17;20.88;;;38.40;51.20;;;;;;4974355;28;20043;-60
2022/08/24 07:55:17;;;;;;;28.95;20.42;;;38.30;51.70;;;;;;4974410;28;20383;-60
2022/08/24 07:57:45;;;;;;;28.45;20.83;;;38.00;51.90;;;;;;4974157;28;20034;-60
2022/08/24 08:00:12;;;;;;;25.65;20.17;;;37.80;52.80;;;;;;4974049;28;20089;-60
2022/08/24 08:02:45;;;;;;;27.95;20.95;;;37.40;53.50;;;;;;4974464;28;20121;-60
2022/08/24 08:05:12;;;;;;;30.08;20.08;;;36.90;54.10;;;;;;4974134;28;20495;-60
2022/08/24 08:07:38;;;;;;;24.23;19.50;;;36.60;55.30;;;;;;4974221;28;20057;-60
2022/08/24 08:10:04;;;;;;;23.05;16.92;;;36.30;56.00;;;;;;4974141;28;20035;-62
2022/08/24 08:12:30;;;;;;;22.83;16.25;;;35.90;56.60;;;;;;4973998;28;20042;-60
2022/08/24 08:14:56;;;;;;;27.73;16.40;;;35.50;56.80;;;;;;4974176;28;20108;-60
2022/08/24 08:17:22;;;;;;;23.90;14.93;;;35.20;57.70;;;;;;4974076;28;20039;-60
2022/08/24 08:19:48;;;;;;;23.85;15.25;;;34.90;58.10;;;;;;4974130;28;20043;-60
2022/08/24 08:24:59;;;;;;;25.23;15.65;;;34.60;58.70;;;;;;4972498;28;20081;-61
2022/08/24 08:27:26;;;;;;;36.25;17.08;;;34.60;59.40;;;;;;4973565;28;20085;-61
2022/08/24 08:29:52;;;;;;;19.90;15.48;;;34.50;59.80;;;;;;4974106;28;20078;-61
2022/08/24 08:32:18;;;;;;;29.35;18.38;;;34.30;60.20;;;;;;4974009;28;20376;-61
2022/08/24 08:34:45;;;;;;;22.33;16.27;;;34.20;60.00;;;;;;4974049;28;20117;-61
2022/08/24 08:37:12;;;;;;;19.80;15.68;;;34.20;60.60;;;;;;4973869;28;20033;-61
2022/08/24 08:39:39;;;;;;;17.70;12.65;;;34.10;60.70;;;;;;4973808;28;20097;-61
2022/08/24 08:42:23;;;;;;;35.00;14.20;;;34.00;60.60;;;;;;4974257;28;20387;-58
2022/08/24 08:45:06;;;;;;;20.58;11.65;;;33.90;60.80;;;;;;4974102;28;20050;-58
2022/08/24 08:47:55;;;;;;;18.38;11.57;;;34.00;59.30;;;;;;4973877;28;20047;-59
2022/08/24 08:51:00;;;;;;;20.48;11.85;;;34.30;63.80;;;;;;4940661;28;20069;-58
2022/08/24 08:53:50;;;;;;;18.42;8.88;;;34.20;60.20;;;;;;4977035;28;20055;-59
2022/08/24 08:56:25;;;;;;;14.57;11.23;;;33.80;63.30;;;;;;4977240;28;20046;-59
2022/08/24 08:58:54;;;;;;;;;;;33.70;59.10;;;;;;4976490;28;20050;-57
2022/08/24 09:01:48;;;;;;;13.18;8.65;;;33.60;58.90;;;;;;4977624;28;19969;-57
2022/08/24 09:04:25;;;;;;;16.98;9.52;;;33.20;59.40;;;;;;4977418;28;20039;-57
2022/08/24 09:06:59;;;;;;;11.57;8.13;;;33.20;61.40;;;;;;4977126;28;20051;-57
2022/08/24 09:09:28;;;;;;;;;;;33.30;61.00;;;;;;4977752;28;20046;-57
2022/08/24 09:12:10;;;;;;;12.43;7.05;;;34.30;64.20;;;;;;4977123;28;20371;-57
2022/08/24 09:15:16;;;;;;;11.38;6.60;;;33.40;59.80;;;;;;4960477;28;20031;-57
2022/08/24 09:17:53;;;;;;;10.55;6.75;;;33.40;58.70;;;;;;4977026;28;20505;-58
2022/08/24 09:20:56;;;;;;;11.98;7.30;;;33.40;60.00;;;;;;4977396;28;20050;-57
2022/08/24 09:23:59;;;;;;;13.50;7.65;;;33.40;59.00;;;;;;4976793;28;20058;-56
2022/08/24 09:26:50;;;;;;;19.52;10.13;;;33.50;58.80;;;;;;4976203;28;20090;-56
2022/08/24 09:29:48;;;;;;;11.88;6.90;;;33.30;58.90;;;;;;4976100;28;20134;-57
2022/08/24 09:32:39;;;;;;;7.55;4.53;;;32.80;59.00;;;;;;4967846;28;20054;-57
2022/08/24 09:35:11;;;;;;;9.10;4.50;;;32.80;59.00;;;;;;4977036;28;20051;-56
2022/08/24 09:37:54;;;;;;;14.05;4.38;;;32.90;59.40;;;;;;4977282;28;20042;-56
2022/08/24 09:40:55;;;;;;;9.80;4.75;;;30.90;56.30;;;;;;4976579;28;20487;-57
2022/08/24 09:43:50;;;;;;;8.98;5.18;;;33.10;57.10;;;;;;4976867;28;20043;-57
2022/08/24 09:46:54;;;;;;;12.63;5.30;;;33.00;57.20;;;;;;4976271;28;20105;-59
2022/08/24 09:49:42;;;;;;;10.35;5.65;;;33.00;58.60;;;;;;4976598;28;20043;-58
2022/08/24 09:52:32;;;;;;;10.90;5.60;;;33.00;58.20;;;;;;4976404;28;20035;-57
2022/08/24 09:55:22;;;;;;;14.48;5.60;;;33.00;62.90;;;;;;4976689;28;20038;-58
2022/08/24 09:58:24;;;;;;;9.80;5.55;;;32.90;58.80;;;;;;4976429;28;20047;-57
2022/08/24 10:01:26;;;;;;;10.75;5.47;;;32.90;59.30;;;;;;4974938;28;20125;-58
2022/08/24 10:04:08;;;;;;;17.40;5.13;;;32.90;59.40;;;;;;4938610;28;20129;-58
2022/08/24 10:06:40;;;;;;;18.15;4.93;;;32.80;59.10;;;;;;4976302;28;20147;-57
2022/08/24 10:09:35;;;;;;;18.98;4.28;;;32.70;58.70;;;;;;4975931;28;20053;-58
2022/08/24 10:12:14;;;;;;;81.10;8.30;;;32.60;58.90;;;;;;4976248;28;20045;-58
2022/08/24 10:15:03;;;;;;;25.75;5.72;;;32.60;58.80;;;;;;4976016;28;20475;-58
2022/08/24 10:17:52;;;;;;;12.13;5.20;;;32.70;61.00;;;;;;4975853;28;20042;-57
2022/08/24 10:20:33;;;;;;;9.00;4.00;;;32.60;58.70;;;;;;4976101;28;20077;-58
2022/08/24 10:23:10;;;;;;;13.52;4.45;;;32.40;59.80;;;;;;4975805;28;20042;-56
2022/08/24 10:25:51;;;;;;;11.23;3.95;;;32.40;59.50;;;;;;4975753;28;20046;-57
2022/08/24 10:28:32;;;;;;;12.70;4.45;;;32.40;59.50;;;;;;4976038;28;20070;-57
2022/08/24 10:30:59;;;;;;;7.57;4.05;;;32.50;59.40;;;;;;4966803;28;20117;-57
2022/08/24 10:33:45;;;;;;;6.82;3.90;;;32.50;59.90;;;;;;4974804;28;20507;-57
2022/08/24 10:36:23;;;;;;;19.17;4.80;;;32.50;59.70;;;;;;4974227;28;20047;-57
2022/08/24 10:45:30;;;;;;;10.93;3.88;;;32.30;60.10;;;;;;4974131;28;20107;-57
2022/08/24 10:48:20;;;;;;;9.68;4.00;;;32.10;60.20;;;;;;4974678;28;20100;-57
2022/08/24 10:50:58;;;;;;;11.05;3.40;;;32.10;60.20;;;;;;4974118;28;20058;-57
2022/08/24 10:53:26;;;;;;;6.45;2.33;;;32.00;60.20;;;;;;4973560;28;20039;-57
2022/08/24 10:56:08;;;;;;;3.17;2.08;;;32.00;60.40;;;;;;4956447;28;20057;-57
2022/08/24 10:58:51;;;;;;;5.78;2.72;;;32.10;60.10;;;;;;4957100;28;20369;-58
2022/08/24 11:01:35;;;;;;;7.45;3.00;;;32.20;60.00;;;;;;4973792;28;20427;-58
2022/08/24 11:04:08;;;;;;;5.05;2.60;;;32.30;59.40;;;;;;4974328;28;20101;-60
2022/08/24 11:06:41;;;;;;;5.45;2.90;;;32.30;59.90;;;;;;4972941;28;20063;-57
2022/08/24 11:09:10;;;;;;;9.43;3.10;;;32.40;59.50;;;;;;4974723;28;20050;-58
2022/08/24 11:11:48;;;;;;;7.85;3.03;;;32.40;59.10;;;;;;4957483;28;20474;-61
2022/08/24 11:14:30;;;;;;;10.70;2.50;;;32.30;59.00;;;;;;4975145;28;20045;-58
2022/08/24 11:17:19;;;;;;;4.28;2.38;;;32.20;60.30;;;;;;4974279;28;20117;-61
2022/08/24 11:19:46;;;;;;;5.68;2.78;;;32.20;60.30;;;;;;4974938;28;20055;-59
2022/08/24 11:22:32;;;;;;;3.85;2.45;;;32.30;60.10;;;;;;4974692;28;20105;-59
2022/08/24 11:25:25;;;;;;;6.85;2.58;;;32.30;60.10;;;;;;4970056;28;20087;-58
2022/08/24 11:28:09;;;;;;;5.20;2.60;;;32.30;60.00;;;;;;4947583;29;20080;-58
2022/08/24 11:30:39;;;;;;;5.68;2.30;;;32.30;59.80;;;;;;4953993;29;20535;-59
2022/08/24 11:33:27;;;;;;;10.45;2.67;;;32.30;60.20;;;;;;4955357;28;20480;-58
2022/08/24 11:35:52;;;;;;;;;;;32.50;59.60;;;;;;4955725;29;20042;-58
2022/08/24 11:38:25;;;;;;;4.15;2.22;;;32.40;59.70;;;;;;4955321;29;20298;-59
2022/08/24 11:40:54;;;;;;;3.88;2.55;;;32.50;59.90;;;;;;4955185;28;20051;-58
2022/08/24 11:43:34;;;;;;;6.22;2.28;;;32.40;58.90;;;;;;4955414;28;20420;-58
2022/08/24 11:46:22;;;;;;;5.28;2.42;;;32.20;58.50;;;;;;4954825;28;20055;-58
2022/08/24 11:49:07;;;;;;;4.43;2.10;;;32.20;59.80;;;;;;4954530;28;20054;-58
2022/08/24 11:51:35;;;;;;;5.07;2.30;;;32.20;59.20;;;;;;4955160;28;20043;-58
2022/08/24 11:54:11;;;;;;;4.70;2.45;;;32.30;59.80;;;;;;4955281;29;20388;-59
2022/08/24 11:57:04;;;;;;;4.32;2.20;;;32.40;59.70;;;;;;4955025;28;20043;-58
2022/08/24 11:59:44;;;;;;;4.28;2.20;;;32.60;59.50;;;;;;4954439;28;20051;-59
2022/08/24 12:02:32;;;;;;;5.35;2.45;;;32.70;59.00;;;;;;4954980;28;20051;-59
2022/08/24 12:05:21;;;;;;;3.88;2.28;;;32.80;59.50;;;;;;4926176;28;20051;-59
2022/08/24 12:07:52;;;;;;;21.85;2.60;;;32.90;58.00;;;;;;4918176;29;20057;-59
2022/08/24 12:10:36;;;;;;;2.55;2.30;;;32.90;58.50;;;;;;4954835;28;20047;-59
2022/08/24 12:13:30;;;;;;;5.03;1.88;;;32.90;57.90;;;;;;4954894;29;20143;-59
2022/08/24 12:16:11;;;;;;;4.80;2.10;;;32.90;58.20;;;;;;4955082;28;20047;-59
2022/08/24 12:18:56;;;;;;;7.78;2.33;;;32.90;57.90;;;;;;4953591;29;20046;-59
2022/08/24 12:21:27;;;;;;;4.05;1.90;;;33.00;58.40;;;;;;4954915;28;20066;-59
2022/08/24 12:24:15;;;;;;;2.53;1.70;;;33.20;58.00;;;;;;4963183;28;20051;-59
2022/08/24 12:26:50;;;;;;;15.45;1.90;;;33.40;55.30;;;;;;4974681;28;20055;-59
2022/08/24 12:29:37;;;;;;;4.57;1.60;;;33.40;54.90;;;;;;4977881;28;20043;-59
2022/08/24 12:32:09;;;;;;;3.03;1.60;;;33.50;54.80;;;;;;4978031;28;20058;-59
2022/08/24 12:34:56;;;;;;;3.75;1.80;;;33.50;55.00;;;;;;4977994;28;20399;-60
2022/08/24 12:37:54;;;;;;;5.78;1.83;;;33.70;55.10;;;;;;4977878;28;20467;-59
2022/08/24 12:41:06;;;;;;;4.95;1.70;;;33.80;54.60;;;;;;4977700;28;20391;-59
2022/08/24 12:44:00;;;;;;;4.03;1.75;;;33.80;54.00;;;;;;4899236;29;20489;-59
2022/08/24 12:46:26;;;;;;;3.65;1.63;;;33.90;53.90;;;;;;4882655;29;20095;-59
2022/08/24 12:49:11;;;;;;;2.45;1.50;;;33.90;53.70;;;;;;4899220;29;20060;-60
2022/08/24 12:51:58;;;;;;;4.20;1.70;;;34.00;54.40;;;;;;4883382;29;20052;-59
2022/08/24 12:54:42;;;;;;;4.57;1.60;;;34.10;53.60;;;;;;4898976;29;20169;-59
2022/08/24 12:57:32;;;;;;;3.05;1.60;;;33.90;52.90;;;;;;4899062;29;20041;-61
2022/08/24 13:00:07;;;;;;;1.95;1.38;;;33.70;53.20;;;;;;4897833;29;20087;-61
2022/08/24 13:02:42;;;;;;;2.53;1.60;;;33.70;53.10;;;;;;4899033;29;20067;-61
2022/08/24 13:05:15;;;;;;;1.67;1.50;;;33.70;52.80;;;;;;4898834;29;20053;-61
2022/08/24 13:07:45;;;;;;;3.67;1.37;;;33.80;52.80;;;;;;4898883;29;20059;-61
2022/08/24 13:10:23;;;;;;;3.05;1.50;;;33.80;52.90;;;;;;4898768;29;20175;-62
2022/08/24 13:13:15;;;;;;;1.83;1.30;;;33.90;52.40;;;;;;4898795;29;20048;-62
2022/08/24 13:15:44;;;;;;;3.28;1.40;;;34.00;52.50;;;;;;4960041;28;20046;-62